Time;durP1;ratioP1;P1;durP2;ratioP2;P2;SDS_P1;SDS_P2;PMS_P1;PMS_P2;Temp;Humidity;BMP_temperature;BMP_pressure;BME280_temperature;BME280_humidity;BME280_pressure;Samples;Min_cycle;Max_cycle;Signal;HPM_P1;HPM_P2
2020/12/11 00:01:37;;;;;;;13.70;10.40;;;5.20;99.90;;;;;;5127017;27;20196;-72
2020/12/11 00:04:04;;;;;;;13.18;9.43;;;5.20;99.90;;;;;;5132839;27;20188;-72
2020/12/11 00:06:31;;;;;;;13.73;9.77;;;5.20;99.90;;;;;;5131391;27;20262;-72
2020/12/11 00:08:57;;;;;;;14.80;10.15;;;5.20;99.90;;;;;;5129541;27;20192;-72
2020/12/11 00:11:28;;;;;;;11.65;9.55;;;5.20;99.90;;;;;;5126678;27;20193;-72
2020/12/11 00:13:54;;;;;;;14.10;10.55;;;5.20;99.90;;;;;;5115150;27;20217;-73
2020/12/11 00:16:21;;;;;;;11.45;9.13;;;5.20;99.90;;;;;;5128243;27;20197;-72
2020/12/11 00:18:47;;;;;;;14.27;10.38;;;5.20;99.90;;;;;;5116946;27;20192;-73
2020/12/11 00:21:13;;;;;;;15.32;10.88;;;5.20;99.90;;;;;;5119292;27;20575;-72
2020/12/11 00:23:40;;;;;;;15.77;9.10;;;5.20;99.90;;;;;;5112010;28;20195;-72
2020/12/11 00:26:07;;;;;;;15.20;11.05;;;5.20;99.90;;;;;;5111832;28;20199;-76
2020/12/11 00:28:33;;;;;;;15.90;10.45;;;5.20;99.90;;;;;;5112154;28;20498;-72
2020/12/11 00:30:59;;;;;;;21.83;9.68;;;5.20;99.90;;;;;;5120316;27;20192;-73
2020/12/11 00:33:26;;;;;;;11.38;8.93;;;5.20;99.90;;;;;;5110810;28;20762;-72
2020/12/11 00:35:53;;;;;;;11.57;9.50;;;5.10;99.90;;;;;;5132234;28;20204;-71
2020/12/11 00:38:20;;;;;;;13.50;10.25;;;5.10;99.90;;;;;;5130157;27;20212;-72
2020/12/11 00:40:47;;;;;;;14.80;9.68;;;5.10;99.90;;;;;;5131020;27;20196;-73
2020/12/11 00:43:13;;;;;;;12.93;8.95;;;5.10;99.90;;;;;;5112155;28;20196;-72
2020/12/11 00:45:40;;;;;;;11.35;9.15;;;5.10;99.90;;;;;;5121414;28;20200;-72
2020/12/11 00:48:06;;;;;;;15.18;10.68;;;5.10;99.90;;;;;;5129350;27;20198;-72
2020/12/11 00:50:32;;;;;;;11.55;8.75;;;5.20;99.90;;;;;;5112088;28;20216;-72
2020/12/11 00:52:59;;;;;;;12.40;9.50;;;5.20;99.90;;;;;;5123771;28;20212;-72
2020/12/11 00:55:25;;;;;;;17.27;9.82;;;5.20;99.90;;;;;;5112404;28;20192;-71
2020/12/11 00:57:52;;;;;;;13.02;9.95;;;5.20;99.90;;;;;;5112103;28;20193;-71
2020/12/11 01:00:19;;;;;;;12.93;10.60;;;5.10;99.90;;;;;;5112087;28;20197;-72
2020/12/11 01:02:45;;;;;;;14.85;10.65;;;5.20;99.90;;;;;;5111954;28;20193;-71
2020/12/11 01:05:11;;;;;;;15.50;11.18;;;5.10;99.90;;;;;;5114389;28;20533;-71
2020/12/11 01:07:37;;;;;;;13.63;9.52;;;5.10;99.90;;;;;;5112380;28;20200;-71
2020/12/11 01:10:04;;;;;;;12.73;9.68;;;5.10;99.90;;;;;;5112104;28;20203;-71
2020/12/11 01:12:31;;;;;;;12.98;8.85;;;5.10;99.90;;;;;;5112205;28;20240;-71
2020/12/11 01:14:58;;;;;;;13.63;10.27;;;5.10;99.90;;;;;;5122364;28;20196;-71
2020/12/11 01:17:24;;;;;;;12.93;9.35;;;5.10;99.90;;;;;;5116041;27;20636;-71
2020/12/11 01:19:51;;;;;;;14.57;10.20;;;5.10;99.90;;;;;;5112366;28;20196;-71
2020/12/11 01:22:17;;;;;;;11.48;8.85;;;5.10;99.90;;;;;;5113997;28;20193;-71
2020/12/11 01:24:43;;;;;;;13.57;10.75;;;5.10;99.90;;;;;;5111765;28;20208;-71
2020/12/11 01:27:11;;;;;;;12.80;9.85;;;5.10;99.90;;;;;;5112087;28;20193;-71
2020/12/11 01:29:37;;;;;;;12.00;9.48;;;5.10;99.90;;;;;;5113503;28;20189;-72
2020/12/11 01:32:05;;;;;;;13.38;9.60;;;5.10;99.90;;;;;;5133350;27;20215;-72
2020/12/11 01:34:31;;;;;;;13.32;9.23;;;5.10;99.90;;;;;;5118381;27;20200;-72
2020/12/11 01:37:03;;;;;;;15.48;10.10;;;5.10;99.90;;;;;;5115307;28;20197;-72
2020/12/11 01:39:29;;;;;;;13.35;9.27;;;5.10;99.90;;;;;;5133967;27;20224;-72
2020/12/11 01:41:55;;;;;;;13.88;9.50;;;5.00;99.90;;;;;;5133739;27;20211;-72
2020/12/11 01:44:22;;;;;;;15.55;11.38;;;5.10;99.90;;;;;;5136219;27;20562;-72
2020/12/11 01:46:49;;;;;;;14.32;9.77;;;5.00;99.90;;;;;;5135990;27;20201;-72
2020/12/11 01:49:17;;;;;;;15.13;10.40;;;5.00;99.90;;;;;;5116688;27;20635;-72
2020/12/11 01:51:45;;;;;;;13.77;9.02;;;5.00;99.90;;;;;;5121802;27;20192;-73
2020/12/11 01:54:11;;;;;;;14.73;9.50;;;5.00;99.90;;;;;;5135653;27;20194;-72
2020/12/11 01:56:45;;;;;;;13.52;10.77;;;5.00;99.90;;;;;;5121626;27;20196;-72
2020/12/11 01:59:18;;;;;;;12.80;9.13;;;5.10;99.90;;;;;;5115193;28;20267;-72
2020/12/11 02:01:47;;;;;;;12.45;8.32;;;5.10;99.90;;;;;;5134287;27;20192;-72
2020/12/11 02:04:14;;;;;;;13.73;10.75;;;5.10;99.90;;;;;;5134121;27;20203;-72
2020/12/11 02:06:42;;;;;;;14.85;10.07;;;5.10;99.90;;;;;;5135365;27;20204;-72
2020/12/11 02:09:09;;;;;;;10.20;8.50;;;5.10;99.90;;;;;;5118519;27;20196;-72
2020/12/11 02:11:35;;;;;;;12.82;9.45;;;5.10;99.90;;;;;;5115233;28;20228;-72
2020/12/11 02:14:02;;;;;;;11.27;9.25;;;5.10;99.90;;;;;;5122091;27;20223;-72
2020/12/11 02:16:28;;;;;;;12.65;9.90;;;5.10;99.90;;;;;;5135561;27;20202;-72
2020/12/11 02:18:54;;;;;;;13.35;9.25;;;5.10;99.90;;;;;;5133941;27;20196;-72
2020/12/11 02:21:21;;;;;;;12.88;11.45;;;5.10;99.90;;;;;;5131300;27;20201;-72
2020/12/11 02:23:48;;;;;;;12.70;9.48;;;5.10;99.90;;;;;;5114627;27;20633;-72
2020/12/11 02:26:14;;;;;;;11.48;8.90;;;5.10;99.90;;;;;;5121721;27;20199;-71
2020/12/11 02:28:41;;;;;;;11.80;9.25;;;5.10;99.90;;;;;;5114590;28;20192;-72
2020/12/11 02:31:07;;;;;;;14.18;9.88;;;5.10;99.90;;;;;;5114889;28;20203;-72
2020/12/11 02:33:33;;;;;;;14.10;10.43;;;5.00;99.90;;;;;;5115343;27;20679;-72
2020/12/11 02:35:59;;;;;;;12.95;9.02;;;5.10;99.90;;;;;;5114671;28;20193;-72
2020/12/11 02:38:26;;;;;;;16.48;10.25;;;5.00;99.90;;;;;;5117235;27;20224;-72
2020/12/11 02:40:55;;;;;;;13.77;9.32;;;5.10;99.90;;;;;;5135027;27;20196;-72
2020/12/11 02:43:22;;;;;;;12.68;10.27;;;5.10;99.90;;;;;;5128371;27;20191;-72
2020/12/11 02:45:51;;;;;;;15.63;10.30;;;5.10;99.90;;;;;;5134900;27;20207;-72
2020/12/11 02:48:18;;;;;;;14.32;10.02;;;5.10;99.90;;;;;;5118735;27;20532;-72
2020/12/11 02:50:44;;;;;;;12.13;9.85;;;5.00;99.90;;;;;;5118839;27;20189;-72
2020/12/11 02:53:11;;;;;;;13.77;9.05;;;5.10;99.90;;;;;;5114972;27;20656;-72
2020/12/11 02:55:37;;;;;;;15.25;9.68;;;5.00;99.90;;;;;;5114160;27;20200;-72
2020/12/11 02:58:04;;;;;;;13.50;9.10;;;5.00;99.90;;;;;;5128490;27;20192;-72
2020/12/11 03:00:31;;;;;;;12.52;9.70;;;5.00;99.90;;;;;;5114481;27;20193;-72
2020/12/11 03:02:57;;;;;;;11.98;9.32;;;5.00;99.90;;;;;;5123622;27;20200;-72
2020/12/11 03:05:23;;;;;;;13.93;10.48;;;5.10;99.90;;;;;;5125010;27;20192;-72
2020/12/11 03:07:49;;;;;;;12.85;9.85;;;5.10;99.90;;;;;;5118399;27;20197;-72
2020/12/11 03:10:16;;;;;;;16.02;10.77;;;5.10;99.90;;;;;;5117406;27;20189;-71
2020/12/11 03:12:42;;;;;;;10.20;8.90;;;5.00;99.90;;;;;;5130438;27;20216;-72
2020/12/11 03:15:09;;;;;;;12.43;9.95;;;5.00;99.90;;;;;;5113390;28;20192;-72
2020/12/11 03:17:35;;;;;;;15.18;10.48;;;5.10;99.90;;;;;;5113272;28;20207;-72
2020/12/11 03:20:02;;;;;;;16.17;9.80;;;5.10;99.90;;;;;;5124082;27;20554;-72
2020/12/11 03:22:28;;;;;;;13.32;9.93;;;5.10;99.90;;;;;;5123561;27;20625;-72
2020/12/11 03:24:54;;;;;;;15.05;10.25;;;5.10;99.90;;;;;;5113300;27;20200;-72
2020/12/11 03:27:20;;;;;;;17.08;11.05;;;5.00;99.90;;;;;;5114244;27;20188;-71
2020/12/11 03:29:46;;;;;;;14.25;10.75;;;5.00;99.90;;;;;;5113535;28;20211;-72
2020/12/11 03:32:14;;;;;;;14.25;10.35;;;5.00;99.90;;;;;;5117986;27;20199;-72
2020/12/11 03:34:40;;;;;;;13.85;9.52;;;5.10;99.90;;;;;;5133954;27;20207;-72
2020/12/11 03:37:06;;;;;;;15.40;9.38;;;5.10;99.90;;;;;;5134026;27;20211;-71
2020/12/11 03:39:32;;;;;;;14.75;10.60;;;5.00;99.90;;;;;;5130677;27;20239;-71
2020/12/11 03:41:58;;;;;;;13.75;9.95;;;5.10;99.90;;;;;;5113536;27;20197;-71
2020/12/11 03:44:25;;;;;;;15.95;11.50;;;5.10;99.90;;;;;;5133551;27;20192;-71
2020/12/11 03:46:54;;;;;;;13.73;9.73;;;5.10;99.90;;;;;;5112317;28;20208;-71
2020/12/11 03:49:22;;;;;;;13.95;9.95;;;5.10;99.90;;;;;;5113879;27;20193;-71
2020/12/11 03:51:52;;;;;;;14.10;10.48;;;5.10;99.90;;;;;;5132902;27;20203;-71
2020/12/11 03:54:19;;;;;;;14.55;10.13;;;5.10;99.90;;;;;;5112500;27;20243;-71
2020/12/11 03:56:47;;;;;;;13.65;10.63;;;5.00;99.90;;;;;;5119287;27;20353;-72
2020/12/11 03:59:13;;;;;;;16.30;10.82;;;5.00;99.90;;;;;;5133480;27;20200;-72
2020/12/11 04:01:39;;;;;;;14.77;11.25;;;5.10;99.90;;;;;;5133344;27;20648;-71
2020/12/11 04:04:05;;;;;;;12.68;9.50;;;5.10;99.90;;;;;;5115419;27;20533;-72
2020/12/11 04:06:32;;;;;;;16.27;11.55;;;5.00;99.90;;;;;;5133303;27;20200;-72
2020/12/11 04:08:59;;;;;;;16.60;11.30;;;5.00;99.90;;;;;;5129024;27;20197;-72
2020/12/11 04:11:25;;;;;;;14.00;10.30;;;5.00;99.90;;;;;;5113941;27;20193;-72
2020/12/11 04:13:51;;;;;;;12.68;9.93;;;5.00;99.90;;;;;;5116284;27;20235;-71
2020/12/11 04:16:17;;;;;;;17.17;10.20;;;5.00;99.90;;;;;;5112795;28;20201;-71
2020/12/11 04:18:44;;;;;;;13.02;9.50;;;5.00;99.90;;;;;;5121553;27;20207;-72
2020/12/11 04:21:11;;;;;;;15.88;10.55;;;5.10;99.90;;;;;;5112612;28;20203;-72
2020/12/11 04:23:38;;;;;;;16.25;10.27;;;5.10;99.90;;;;;;5125352;27;20192;-72
2020/12/11 04:26:05;;;;;;;14.30;10.80;;;5.10;99.90;;;;;;5122300;27;20201;-72
2020/12/11 04:28:31;;;;;;;10.75;8.52;;;5.00;99.90;;;;;;5112559;28;20196;-71
2020/12/11 04:30:57;;;;;;;14.13;10.60;;;5.00;99.90;;;;;;5112124;28;20203;-71
2020/12/11 04:33:23;;;;;;;16.25;9.60;;;5.00;99.90;;;;;;5113154;28;20217;-72
2020/12/11 04:35:50;;;;;;;12.95;9.50;;;4.90;99.90;;;;;;5122503;28;20188;-72
2020/12/11 04:38:16;;;;;;;14.98;10.57;;;5.00;99.90;;;;;;5117261;27;20240;-72
2020/12/11 04:40:44;;;;;;;14.50;10.07;;;4.90;99.90;;;;;;5112813;28;20193;-72
2020/12/11 04:43:11;;;;;;;13.98;10.02;;;4.90;99.90;;;;;;5112649;28;20193;-71
2020/12/11 04:45:38;;;;;;;13.70;9.55;;;4.90;99.90;;;;;;5112381;28;20203;-72
2020/12/11 04:48:07;;;;;;;12.40;9.73;;;4.90;99.90;;;;;;5112328;28;20632;-71
2020/12/11 04:50:34;;;;;;;15.45;10.85;;;4.90;99.90;;;;;;5130108;28;20188;-71
2020/12/11 04:53:02;;;;;;;15.57;10.73;;;5.00;99.90;;;;;;5126049;28;20653;-71
2020/12/11 04:55:30;;;;;;;15.50;10.20;;;4.90;99.90;;;;;;5120136;27;20664;-71
2020/12/11 04:57:57;;;;;;;16.00;10.80;;;4.90;99.90;;;;;;5112740;28;20204;-71
2020/12/11 05:00:24;;;;;;;12.70;8.77;;;5.00;99.90;;;;;;5112252;28;20201;-72
2020/12/11 05:02:50;;;;;;;14.43;9.63;;;5.00;99.90;;;;;;5112357;28;20196;-72
2020/12/11 05:05:18;;;;;;;11.80;8.43;;;5.00;99.90;;;;;;5112043;28;20205;-71
2020/12/11 05:07:45;;;;;;;12.70;9.93;;;4.90;99.90;;;;;;5114239;28;20208;-72
2020/12/11 05:10:13;;;;;;;13.23;9.07;;;5.00;99.90;;;;;;5116151;28;20652;-72
2020/12/11 05:12:39;;;;;;;14.48;9.80;;;4.90;99.90;;;;;;5117869;27;20560;-72
2020/12/11 05:15:09;;;;;;;13.38;10.25;;;5.00;99.90;;;;;;5128830;27;20218;-72
2020/12/11 05:17:36;;;;;;;13.60;9.63;;;5.00;99.90;;;;;;5116033;27;20189;-72
2020/12/11 05:20:04;;;;;;;14.18;9.52;;;4.90;99.90;;;;;;5117068;27;20556;-72
2020/12/11 05:22:32;;;;;;;15.43;11.23;;;4.90;99.90;;;;;;5115768;28;20196;-71
2020/12/11 05:24:58;;;;;;;18.70;12.10;;;5.00;99.90;;;;;;5115585;27;20705;-72
2020/12/11 05:27:36;;;;;;;13.90;10.13;;;4.90;99.90;;;;;;5119490;27;20193;-72
2020/12/11 05:30:24;;;;;;;13.63;11.07;;;4.90;99.90;;;;;;5115929;27;20241;-71
2020/12/11 05:32:53;;;;;;;14.65;10.38;;;4.90;99.90;;;;;;5115296;28;20583;-72
2020/12/11 05:35:32;;;;;;;14.65;10.43;;;4.80;99.90;;;;;;5115954;28;20242;-72
2020/12/11 05:38:02;;;;;;;13.40;10.10;;;4.90;99.90;;;;;;5116783;27;20510;-72
2020/12/11 05:40:31;;;;;;;14.23;10.32;;;4.90;99.90;;;;;;5121500;27;20197;-72
2020/12/11 05:43:13;;;;;;;15.05;9.85;;;4.90;99.90;;;;;;5135798;27;20237;-71
2020/12/11 05:45:47;;;;;;;14.88;10.55;;;4.90;99.90;;;;;;5134567;27;20647;-72
2020/12/11 05:48:14;;;;;;;15.50;9.40;;;4.90;99.90;;;;;;5133152;27;20200;-72
2020/12/11 05:50:40;;;;;;;14.02;9.77;;;4.90;99.90;;;;;;5126351;27;20203;-71
2020/12/11 05:53:07;;;;;;;13.13;9.95;;;4.90;99.90;;;;;;5120780;27;20213;-72
2020/12/11 05:55:33;;;;;;;16.60;11.07;;;4.80;99.90;;;;;;5115014;28;20208;-72
2020/12/11 05:57:59;;;;;;;16.67;10.52;;;4.90;99.90;;;;;;5115313;27;20196;-71
2020/12/11 06:00:26;;;;;;;16.52;10.32;;;4.90;99.90;;;;;;5128537;27;20207;-71
2020/12/11 06:02:55;;;;;;;13.43;10.27;;;4.90;99.90;;;;;;5122428;27;20204;-71
2020/12/11 06:05:23;;;;;;;13.68;10.55;;;4.90;99.90;;;;;;5123473;27;20207;-72
2020/12/11 06:07:50;;;;;;;13.10;10.25;;;4.90;99.90;;;;;;5133718;27;20199;-71
2020/12/11 06:10:18;;;;;;;14.95;11.23;;;4.90;99.90;;;;;;5133930;27;20299;-72
2020/12/11 06:12:44;;;;;;;13.98;9.35;;;4.90;99.90;;;;;;5125695;27;20212;-72
2020/12/11 06:15:24;;;;;;;16.67;11.77;;;5.00;99.90;;;;;;5114759;28;20652;-71
2020/12/11 06:17:58;;;;;;;15.90;11.00;;;5.00;99.90;;;;;;5117297;27;20208;-71
2020/12/11 06:20:25;;;;;;;19.13;11.50;;;4.90;99.90;;;;;;5135473;27;20196;-71
2020/12/11 06:22:51;;;;;;;12.35;10.90;;;4.90;99.90;;;;;;5116992;27;20804;-72
2020/12/11 06:25:25;;;;;;;13.02;9.77;;;4.90;99.90;;;;;;5121576;27;20207;-72
2020/12/11 06:27:52;;;;;;;13.88;11.82;;;4.90;99.90;;;;;;5117101;27;20204;-72
2020/12/11 06:30:26;;;;;;;14.55;11.57;;;4.90;99.90;;;;;;5133607;27;20640;-72
2020/12/11 06:32:53;;;;;;;16.85;11.10;;;4.90;99.90;;;;;;5135019;27;20225;-72
2020/12/11 06:35:20;;;;;;;13.90;10.85;;;4.90;99.90;;;;;;5135002;27;20231;-72
2020/12/11 06:37:46;;;;;;;12.98;10.27;;;4.90;99.90;;;;;;5132693;27;20639;-72
2020/12/11 06:40:13;;;;;;;15.52;10.88;;;4.90;99.90;;;;;;5113764;28;20232;-71
2020/12/11 06:42:46;;;;;;;13.80;9.45;;;4.90;99.90;;;;;;5114263;28;20211;-72
2020/12/11 06:45:24;;;;;;;12.70;8.70;;;5.00;99.90;;;;;;5113112;28;20192;-72
2020/12/11 06:47:52;;;;;;;12.63;9.77;;;4.90;99.90;;;;;;5113782;28;20543;-72
2020/12/11 06:50:21;;;;;;;15.50;10.93;;;5.00;99.90;;;;;;5113578;28;20636;-72
2020/12/11 06:52:47;;;;;;;15.57;10.40;;;4.90;99.90;;;;;;5113751;28;20213;-72
2020/12/11 06:55:14;;;;;;;13.93;10.55;;;4.90;99.90;;;;;;5117099;27;20627;-71
2020/12/11 06:57:43;;;;;;;13.95;9.45;;;5.00;99.90;;;;;;5126609;27;20200;-71
2020/12/11 07:00:37;;;;;;;13.82;10.50;;;4.90;99.90;;;;;;5134805;27;20223;-71
2020/12/11 07:03:30;;;;;;;15.63;10.00;;;4.90;99.90;;;;;;5133090;27;20192;-71
2020/12/11 07:06:09;;;;;;;10.50;7.68;;;4.90;99.90;;;;;;5134313;27;20291;-71
2020/12/11 07:08:35;;;;;;;12.23;9.63;;;4.90;99.90;;;;;;5131393;27;20180;-71
2020/12/11 07:11:20;;;;;;;11.98;9.43;;;4.90;99.90;;;;;;5119838;27;20203;-71
2020/12/11 07:13:47;;;;;;;14.02;10.25;;;4.90;99.90;;;;;;5113509;28;20328;-71
2020/12/11 07:16:14;;;;;;;14.35;11.00;;;4.90;99.90;;;;;;5113692;28;20196;-71
2020/12/11 07:18:41;;;;;;;14.30;10.48;;;4.90;99.90;;;;;;5126029;27;20204;-71
2020/12/11 07:21:09;;;;;;;11.40;9.10;;;4.90;99.90;;;;;;5133883;27;20196;-72
2020/12/11 07:23:36;;;;;;;11.80;10.02;;;4.90;99.90;;;;;;5125619;27;20657;-72
2020/12/11 07:26:04;;;;;;;14.88;10.38;;;4.90;99.90;;;;;;5113750;28;20201;-71
2020/12/11 07:28:31;;;;;;;14.25;10.50;;;4.90;99.90;;;;;;5114058;27;20199;-71
2020/12/11 07:30:57;;;;;;;10.90;9.10;;;4.90;99.90;;;;;;5113443;27;20201;-71
2020/12/11 07:33:33;;;;;;;13.75;10.38;;;4.90;99.90;;;;;;5133714;27;20216;-71
2020/12/11 07:36:01;;;;;;;13.77;10.68;;;4.90;99.90;;;;;;5126978;27;20203;-72
2020/12/11 07:38:29;;;;;;;12.52;9.68;;;4.90;99.90;;;;;;5114639;27;20277;-72
2020/12/11 07:40:55;;;;;;;11.68;9.43;;;4.90;99.90;;;;;;5133015;27;20211;-72
2020/12/11 07:43:22;;;;;;;14.38;10.10;;;4.90;99.90;;;;;;5116144;27;20193;-71
2020/12/11 07:45:49;;;;;;;14.73;11.13;;;4.90;99.90;;;;;;5119164;27;20639;-71
2020/12/11 07:48:16;;;;;;;14.15;9.90;;;4.80;99.90;;;;;;5112738;27;20216;-71
2020/12/11 07:50:43;;;;;;;13.20;10.40;;;4.80;99.90;;;;;;5116237;27;20205;-71
2020/12/11 07:53:11;;;;;;;11.52;8.98;;;4.80;99.90;;;;;;5127992;27;20780;-71
2020/12/11 07:55:38;;;;;;;11.77;8.80;;;4.80;99.90;;;;;;5133214;27;20287;-71
2020/12/11 07:58:04;;;;;;;9.77;8.77;;;4.90;99.90;;;;;;5123511;27;20656;-71
2020/12/11 08:00:35;;;;;;;11.80;10.02;;;4.90;99.90;;;;;;5112707;27;20189;-72
2020/12/11 08:03:05;;;;;;;14.18;9.60;;;4.90;99.90;;;;;;5112666;27;20271;-72
2020/12/11 08:05:33;;;;;;;15.57;10.35;;;5.00;99.90;;;;;;5118574;27;20189;-72
2020/12/11 08:07:59;;;;;;;12.93;9.07;;;5.00;99.90;;;;;;5114662;27;20208;-72
2020/12/11 08:10:35;;;;;;;10.80;9.05;;;4.90;99.90;;;;;;5112610;28;20197;-72
2020/12/11 08:13:12;;;;;;;12.55;10.00;;;5.00;99.90;;;;;;5112910;28;20197;-72
2020/12/11 08:15:39;;;;;;;14.85;9.43;;;5.10;99.90;;;;;;5113721;27;20196;-72
2020/12/11 08:18:09;;;;;;;12.95;10.02;;;5.00;99.90;;;;;;5116574;27;20288;-72
2020/12/11 08:20:47;;;;;;;11.65;9.10;;;5.00;99.90;;;;;;5129290;27;20192;-72
2020/12/11 08:23:34;;;;;;;12.45;10.05;;;4.90;99.90;;;;;;5128039;27;20185;-72
2020/12/11 08:26:08;;;;;;;10.23;8.77;;;4.90;99.90;;;;;;5112591;28;20205;-71
2020/12/11 08:28:35;;;;;;;13.15;10.25;;;5.00;99.90;;;;;;5112398;28;20195;-72
2020/12/11 08:31:21;;;;;;;11.82;9.40;;;5.00;99.90;;;;;;5119770;28;20192;-71
2020/12/11 08:33:49;;;;;;;11.35;9.80;;;5.00;99.90;;;;;;5119873;27;20205;-72
2020/12/11 08:36:20;;;;;;;12.55;10.00;;;5.00;99.90;;;;;;5112090;28;20206;-72
2020/12/11 08:39:05;;;;;;;12.25;9.57;;;5.00;99.90;;;;;;5113137;28;20225;-72
2020/12/11 08:41:33;;;;;;;11.52;9.27;;;5.00;99.90;;;;;;5114962;28;20556;-73
2020/12/11 08:44:02;;;;;;;12.95;9.63;;;5.00;99.90;;;;;;5117009;28;20280;-74
2020/12/11 08:46:33;;;;;;;13.80;9.95;;;5.00;99.90;;;;;;5116323;27;20296;-75
2020/12/11 08:49:07;;;;;;;14.30;10.02;;;5.00;99.90;;;;;;5128116;27;20504;-74
2020/12/11 08:51:33;;;;;;;12.13;9.20;;;5.00;99.90;;;;;;5116176;28;20196;-74
2020/12/11 08:54:01;;;;;;;10.35;8.50;;;5.00;99.90;;;;;;5121077;27;20213;-75
2020/12/11 08:56:27;;;;;;;11.77;9.40;;;5.00;99.90;;;;;;5132662;27;20192;-74
2020/12/11 08:58:54;;;;;;;11.77;9.10;;;5.00;99.90;;;;;;5137644;27;20192;-74
2020/12/11 09:01:21;;;;;;;11.20;8.52;;;4.90;99.90;;;;;;5116052;27;20189;-74
2020/12/11 09:03:47;;;;;;;11.73;8.70;;;4.90;99.90;;;;;;5117105;27;20601;-75
2020/12/11 09:06:13;;;;;;;12.30;8.70;;;5.00;99.90;;;;;;5122954;27;20528;-74
2020/12/11 09:08:39;;;;;;;10.07;8.65;;;5.10;99.90;;;;;;5125286;27;20196;-74
2020/12/11 09:11:06;;;;;;;9.55;8.52;;;5.20;99.90;;;;;;5122417;27;20207;-74
2020/12/11 09:13:32;;;;;;;11.50;9.27;;;5.20;99.90;;;;;;5118739;27;20292;-74
2020/12/11 09:15:58;;;;;;;10.32;8.23;;;5.30;99.90;;;;;;5115997;27;20200;-74
2020/12/11 09:18:25;;;;;;;10.10;8.05;;;5.40;99.90;;;;;;5122737;27;20212;-73
2020/12/11 09:20:52;;;;;;;12.93;8.20;;;5.40;99.90;;;;;;5115215;28;20208;-73
2020/12/11 09:23:18;;;;;;;9.45;8.50;;;5.40;99.90;;;;;;5114989;28;20212;-74
2020/12/11 09:25:44;;;;;;;11.43;9.70;;;5.40;99.90;;;;;;5115703;28;20201;-74
2020/12/11 09:28:13;;;;;;;11.70;9.75;;;5.40;99.90;;;;;;5115061;28;20196;-74
2020/12/11 09:30:40;;;;;;;11.73;9.13;;;5.40;99.90;;;;;;5114247;27;20570;-74
2020/12/11 09:33:09;;;;;;;11.77;8.95;;;5.40;99.90;;;;;;5121458;27;20239;-73
2020/12/11 09:35:36;;;;;;;10.05;8.30;;;5.40;99.90;;;;;;5132005;27;20268;-73
2020/12/11 09:38:03;;;;;;;10.60;8.88;;;5.30;99.90;;;;;;5129900;27;20202;-74
2020/12/11 09:40:39;;;;;;;11.52;8.35;;;5.30;99.90;;;;;;5131136;27;20219;-74
2020/12/11 09:45:59;;;;;;;10.73;8.30;;;5.30;99.90;;;;;;5118255;27;20216;-74
2020/12/11 09:48:33;;;;;;;11.27;9.38;;;5.30;99.90;;;;;;5115317;28;20201;-74
2020/12/11 09:51:14;;;;;;;11.65;9.02;;;5.30;99.90;;;;;;5141027;27;20784;-74
2020/12/11 09:54:07;;;;;;;9.25;7.90;;;5.30;99.90;;;;;;5134242;27;20227;-74
2020/12/11 09:56:33;;;;;;;9.90;7.72;;;5.40;99.90;;;;;;5142866;27;20244;-74
2020/12/11 09:59:02;;;;;;;11.65;7.75;;;5.30;99.90;;;;;;5135519;27;20211;-73
2020/12/11 10:01:41;;;;;;;8.93;6.75;;;5.30;99.90;;;;;;5135375;27;20287;-73
2020/12/11 10:04:08;;;;;;;9.27;6.95;;;5.30;99.90;;;;;;5131804;27;20573;-74
2020/12/11 10:06:35;;;;;;;8.13;6.95;;;5.30;99.90;;;;;;5135352;27;20231;-74
2020/12/11 10:09:01;;;;;;;9.40;8.13;;;5.40;99.90;;;;;;5137274;27;20208;-74
2020/12/11 10:11:27;;;;;;;8.13;7.05;;;5.40;99.90;;;;;;5114728;28;20208;-74
2020/12/11 10:14:09;;;;;;;9.90;7.38;;;5.40;99.90;;;;;;5114389;28;20220;-74
2020/12/11 10:16:35;;;;;;;9.68;6.97;;;5.40;99.90;;;;;;5127114;27;20184;-74
2020/12/11 10:19:01;;;;;;;10.63;6.32;;;5.40;99.90;;;;;;5133586;27;20200;-74
2020/12/11 10:21:29;;;;;;;9.00;8.05;;;5.40;99.90;;;;;;5128979;27;20629;-74
2020/12/11 10:23:56;;;;;;;9.93;6.95;;;5.40;99.90;;;;;;5118121;27;20189;-73
2020/12/11 10:26:22;;;;;;;10.10;7.10;;;5.40;99.90;;;;;;5123025;27;20188;-73
2020/12/11 10:28:49;;;;;;;9.43;7.47;;;5.40;99.90;;;;;;5115641;27;20204;-74
2020/12/11 10:31:15;;;;;;;9.93;7.55;;;5.40;99.90;;;;;;5130722;27;20193;-72
2020/12/11 10:33:41;;;;;;;8.38;6.53;;;5.60;99.90;;;;;;5118799;27;20228;-73
2020/12/11 10:36:08;;;;;;;8.38;6.30;;;5.50;99.90;;;;;;5126878;27;20196;-73
2020/12/11 10:38:34;;;;;;;6.82;5.97;;;5.50;99.90;;;;;;5117798;27;20229;-73
2020/12/11 10:41:01;;;;;;;8.93;6.95;;;5.50;99.90;;;;;;5114436;28;20196;-73
2020/12/11 10:43:27;;;;;;;6.55;5.45;;;5.50;99.90;;;;;;5127224;27;20202;-73
2020/12/11 10:45:53;;;;;;;8.57;6.93;;;5.50;99.90;;;;;;5123680;27;20203;-73
2020/12/11 10:48:20;;;;;;;7.47;6.70;;;5.50;99.90;;;;;;5118693;27;20207;-73
2020/12/11 10:50:46;;;;;;;7.50;5.40;;;5.50;99.90;;;;;;5129717;27;20687;-73
2020/12/11 10:53:12;;;;;;;8.70;5.88;;;5.50;99.90;;;;;;5132162;27;20282;-73
2020/12/11 10:55:39;;;;;;;7.43;6.07;;;5.50;99.90;;;;;;5119787;27;20212;-73
2020/12/11 10:58:06;;;;;;;6.68;6.07;;;5.50;99.90;;;;;;5117466;27;20221;-73
2020/12/11 11:00:32;;;;;;;6.53;5.25;;;5.50;99.90;;;;;;5119322;27;20769;-73
2020/12/11 11:02:58;;;;;;;8.18;6.50;;;5.50;99.90;;;;;;5130640;27;20666;-73
2020/12/11 11:05:25;;;;;;;8.45;5.85;;;5.50;99.90;;;;;;5130949;27;20208;-72
2020/12/11 11:07:51;;;;;;;6.13;4.90;;;5.50;99.90;;;;;;5113969;27;20212;-73
2020/12/11 11:10:27;;;;;;;6.82;5.30;;;5.50;99.90;;;;;;5132052;27;20193;-73
2020/12/11 11:13:01;;;;;;;5.20;4.70;;;5.50;99.90;;;;;;5113266;28;20624;-73
2020/12/11 11:21:17;;;;;;;10.43;6.00;;;5.50;99.90;;;;;;5130115;27;20659;-73
2020/12/11 11:26:45;;;;;;;6.10;4.93;;;5.60;99.90;;;;;;5134008;27;20188;-72
2020/12/11 11:29:12;;;;;;;7.30;5.65;;;5.70;99.90;;;;;;5115843;27;20197;-73
2020/12/11 11:31:39;;;;;;;7.55;5.20;;;5.70;99.90;;;;;;5113366;28;20205;-71
2020/12/11 11:34:05;;;;;;;7.47;5.28;;;5.70;99.90;;;;;;5112878;27;20213;-73
2020/12/11 11:36:33;;;;;;;5.50;4.50;;;5.70;99.90;;;;;;5113601;27;20203;-73
2020/12/11 11:38:59;;;;;;;6.30;5.68;;;5.70;99.90;;;;;;5123286;27;20674;-73
2020/12/11 11:41:44;;;;;;;7.22;4.05;;;5.80;99.90;;;;;;5130900;27;20206;-73
2020/12/11 11:46:58;;;;;;;6.70;5.72;;;5.70;99.90;;;;;;5102702;27;20208;-73
2020/12/11 11:49:28;;;;;;;6.35;5.75;;;5.70;99.90;;;;;;5129215;27;20192;-72
2020/12/11 11:52:02;;;;;;;6.13;4.80;;;5.70;99.90;;;;;;5113241;28;20181;-73
2020/12/11 11:54:28;;;;;;;5.70;4.75;;;5.70;99.90;;;;;;5120528;27;20711;-74
2020/12/11 11:56:58;;;;;;;8.50;6.15;;;5.70;99.90;;;;;;5125653;27;20208;-73
2020/12/11 11:59:24;;;;;;;5.25;4.75;;;5.70;99.90;;;;;;5123086;27;20195;-73
2020/12/11 12:01:53;;;;;;;8.68;5.80;;;5.70;99.90;;;;;;5130970;27;20189;-73
2020/12/11 12:04:20;;;;;;;5.72;4.85;;;5.70;99.90;;;;;;5116362;27;20639;-73
2020/12/11 12:06:46;;;;;;;6.80;5.22;;;5.80;99.90;;;;;;5120642;27;20212;-72
2020/12/11 12:09:13;;;;;;;7.82;5.30;;;5.80;99.90;;;;;;5113442;27;20603;-72
2020/12/11 12:11:39;;;;;;;5.13;4.30;;;5.80;99.90;;;;;;5125373;27;20196;-74
2020/12/11 12:14:05;;;;;;;9.38;5.25;;;5.80;99.90;;;;;;5132850;27;20211;-72
2020/12/11 12:16:33;;;;;;;6.00;4.55;;;5.80;99.90;;;;;;5113260;27;20208;-73
2020/12/11 12:19:00;;;;;;;5.38;4.65;;;5.80;99.90;;;;;;5112112;28;20200;-72
2020/12/11 12:21:35;;;;;;;7.50;5.35;;;5.90;99.90;;;;;;5129164;27;20310;-72
2020/12/11 12:29:26;;;;;;;7.90;5.07;;;6.00;99.90;;;;;;5111593;28;20195;-73
2020/12/11 12:31:56;;;;;;;6.82;4.90;;;6.00;99.90;;;;;;5124340;27;20199;-74
2020/12/11 12:34:41;;;;;;;5.75;4.70;;;6.00;99.90;;;;;;5116665;27;20319;-75
2020/12/11 12:37:30;;;;;;;7.43;5.68;;;6.00;99.90;;;;;;5122291;27;20196;-74
2020/12/11 12:43:01;;;;;;;6.72;5.28;;;6.10;99.90;;;;;;5108953;27;20695;-74
2020/12/11 12:45:28;;;;;;;6.18;5.35;;;6.10;99.90;;;;;;5130292;27;20263;-73
2020/12/11 12:47:54;;;;;;;7.10;5.43;;;6.10;99.90;;;;;;5126481;27;20193;-73
2020/12/11 12:50:21;;;;;;;8.23;6.32;;;6.10;99.90;;;;;;5112338;28;20224;-75
2020/12/11 12:52:48;;;;;;;5.97;4.45;;;6.10;99.90;;;;;;5112143;28;20201;-75
2020/12/11 12:55:17;;;;;;;5.95;5.35;;;6.10;99.90;;;;;;5125744;28;20240;-73
2020/12/11 12:57:44;;;;;;;7.75;5.45;;;6.10;99.90;;;;;;5130589;27;20558;-74
2020/12/11 13:00:19;;;;;;;7.13;5.47;;;6.20;99.90;;;;;;5116536;28;20219;-74
2020/12/11 13:05:35;;;;;;;7.35;4.78;;;6.30;99.90;;;;;;5124168;28;20185;-73
2020/12/11 13:08:03;;;;;;;6.35;4.93;;;6.20;99.90;;;;;;5131953;27;20203;-73
2020/12/11 13:10:29;;;;;;;5.90;5.30;;;6.10;99.90;;;;;;5132243;27;20639;-73
2020/12/11 13:12:55;;;;;;;6.18;5.55;;;6.10;99.90;;;;;;5129061;27;20278;-73
2020/12/11 13:15:22;;;;;;;8.13;5.43;;;6.00;99.90;;;;;;5128112;27;20212;-76
2020/12/11 13:17:48;;;;;;;7.85;5.18;;;6.00;99.90;;;;;;5132632;27;20226;-73